sensor_id;sensor_type;location;lat;lon;timestamp;temperature;humidity
18906;DHT22;9585;51.018;4.282;2022-08-19T00:01:37;16.70;99.90
18906;DHT22;9585;51.018;4.282;2022-08-19T00:04:08;16.70;99.90
18906;DHT22;9585;51.018;4.282;2022-08-19T00:06:37;16.70;99.90
18906;DHT22;9585;51.018;4.282;2022-08-19T00:09:07;16.60;99.90
18906;DHT22;9585;51.018;4.282;2022-08-19T00:11:34;16.60;99.90
18906;DHT22;9585;51.018;4.282;2022-08-19T00:14:03;16.60;99.90
18906;DHT22;9585;51.018;4.282;2022-08-19T00:16:31;16.60;99.90
18906;DHT22;9585;51.018;4.282;2022-08-19T00:18:59;16.60;99.90
18906;DHT22;9585;51.018;4.282;2022-08-19T00:21:28;16.60;99.90
18906;DHT22;9585;51.018;4.282;2022-08-19T00:23:56;16.60;99.90
18906;DHT22;9585;51.018;4.282;2022-08-19T00:26:24;16.60;99.90
18906;DHT22;9585;51.018;4.282;2022-08-19T00:28:52;16.60;99.90
18906;DHT22;9585;51.018;4.282;2022-08-19T00:31:19;16.60;99.90
18906;DHT22;9585;51.018;4.282;2022-08-19T00:33:47;16.60;99.90
18906;DHT22;9585;51.018;4.282;2022-08-19T00:36:16;16.60;99.90
18906;DHT22;9585;51.018;4.282;2022-08-19T00:38:45;16.60;99.90
18906;DHT22;9585;51.018;4.282;2022-08-19T00:41:14;16.60;99.90
18906;DHT22;9585;51.018;4.282;2022-08-19T00:43:41;16.60;99.90
18906;DHT22;9585;51.018;4.282;2022-08-19T00:46:09;16.60;99.90
18906;DHT22;9585;51.018;4.282;2022-08-19T00:48:36;16.60;99.90
18906;DHT22;9585;51.018;4.282;2022-08-19T00:51:04;16.60;99.90
18906;DHT22;9585;51.018;4.282;2022-08-19T00:53:32;16.60;99.90
18906;DHT22;9585;51.018;4.282;2022-08-19T00:56:02;16.60;99.90
18906;DHT22;9585;51.018;4.282;2022-08-19T00:58:34;16.60;99.90
18906;DHT22;9585;51.018;4.282;2022-08-19T01:01:04;16.60;99.90
18906;DHT22;9585;51.018;4.282;2022-08-19T01:03:31;16.60;99.90
18906;DHT22;9585;51.018;4.282;2022-08-19T01:05:58;16.60;99.90
18906;DHT22;9585;51.018;4.282;2022-08-19T01:08:26;16.60;99.90
18906;DHT22;9585;51.018;4.282;2022-08-19T01:10:57;16.50;99.90
18906;DHT22;9585;51.018;4.282;2022-08-19T01:13:30;16.50;99.90
18906;DHT22;9585;51.018;4.282;2022-08-19T01:16:02;16.60;99.90
18906;DHT22;9585;51.018;4.282;2022-08-19T01:18:32;16.50;99.90
18906;DHT22;9585;51.018;4.282;2022-08-19T01:21:07;16.50;99.90
18906;DHT22;9585;51.018;4.282;2022-08-19T01:23:36;16.50;99.90
18906;DHT22;9585;51.018;4.282;2022-08-19T01:26:12;16.50;99.90
18906;DHT22;9585;51.018;4.282;2022-08-19T01:28:40;16.50;99.90
18906;DHT22;9585;51.018;4.282;2022-08-19T01:31:10;16.50;99.90
18906;DHT22;9585;51.018;4.282;2022-08-19T01:33:39;16.40;99.90
18906;DHT22;9585;51.018;4.282;2022-08-19T01:36:08;16.40;99.90
18906;DHT22;9585;51.018;4.282;2022-08-19T01:38:39;16.40;99.90
18906;DHT22;9585;51.018;4.282;2022-08-19T01:41:07;16.40;99.90
18906;DHT22;9585;51.018;4.282;2022-08-19T01:43:34;16.40;99.90
18906;DHT22;9585;51.018;4.282;2022-08-19T01:46:02;16.40;99.90
18906;DHT22;9585;51.018;4.282;2022-08-19T01:48:33;16.30;99.90
18906;DHT22;9585;51.018;4.282;2022-08-19T01:51:01;16.30;99.90
18906;DHT22;9585;51.018;4.282;2022-08-19T01:53:28;16.30;99.90
18906;DHT22;9585;51.018;4.282;2022-08-19T01:55:57;16.20;99.90
18906;DHT22;9585;51.018;4.282;2022-08-19T01:58:39;16.20;99.90
18906;DHT22;9585;51.018;4.282;2022-08-19T02:01:07;16.20;99.90
18906;DHT22;9585;51.018;4.282;2022-08-19T02:03:35;16.10;99.90
18906;DHT22;9585;51.018;4.282;2022-08-19T02:06:03;16.10;99.90
18906;DHT22;9585;51.018;4.282;2022-08-19T02:08:32;16.10;99.90
18906;DHT22;9585;51.018;4.282;2022-08-19T02:11:01;16.00;99.90
18906;DHT22;9585;51.018;4.282;2022-08-19T02:13:29;16.10;99.90
18906;DHT22;9585;51.018;4.282;2022-08-19T02:15:56;16.00;99.90
18906;DHT22;9585;51.018;4.282;2022-08-19T02:18:24;16.00;99.90
18906;DHT22;9585;51.018;4.282;2022-08-19T02:20:52;16.00;99.90
18906;DHT22;9585;51.018;4.282;2022-08-19T02:23:19;16.00;99.90
18906;DHT22;9585;51.018;4.282;2022-08-19T02:25:47;16.00;99.90
18906;DHT22;9585;51.018;4.282;2022-08-19T02:28:16;16.00;99.90
18906;DHT22;9585;51.018;4.282;2022-08-19T02:30:44;16.00;99.90
18906;DHT22;9585;51.018;4.282;2022-08-19T02:33:11;16.00;99.90
18906;DHT22;9585;51.018;4.282;2022-08-19T02:35:41;16.00;99.90
18906;DHT22;9585;51.018;4.282;2022-08-19T02:38:09;16.00;99.90
18906;DHT22;9585;51.018;4.282;2022-08-19T02:40:56;15.90;99.90
18906;DHT22;9585;51.018;4.282;2022-08-19T02:43:26;15.90;99.90
18906;DHT22;9585;51.018;4.282;2022-08-19T02:45:54;15.90;99.90
18906;DHT22;9585;51.018;4.282;2022-08-19T02:48:23;15.90;99.90
18906;DHT22;9585;51.018;4.282;2022-08-19T02:50:52;15.90;99.90
18906;DHT22;9585;51.018;4.282;2022-08-19T02:53:21;15.90;99.90
18906;DHT22;9585;51.018;4.282;2022-08-19T02:55:49;15.90;99.90
18906;DHT22;9585;51.018;4.282;2022-08-19T02:58:17;15.80;99.90
18906;DHT22;9585;51.018;4.282;2022-08-19T03:00:48;15.80;99.90
18906;DHT22;9585;51.018;4.282;2022-08-19T03:03:17;15.80;99.90
18906;DHT22;9585;51.018;4.282;2022-08-19T03:05:45;15.80;99.90
18906;DHT22;9585;51.018;4.282;2022-08-19T03:08:13;15.70;99.90
18906;DHT22;9585;51.018;4.282;2022-08-19T03:10:42;15.80;99.90
18906;DHT22;9585;51.018;4.282;2022-08-19T03:13:11;15.70;99.90
18906;DHT22;9585;51.018;4.282;2022-08-19T03:15:40;15.70;99.90
18906;DHT22;9585;51.018;4.282;2022-08-19T03:18:10;15.70;99.90
18906;DHT22;9585;51.018;4.282;2022-08-19T03:20:41;15.70;99.90
18906;DHT22;9585;51.018;4.282;2022-08-19T03:23:09;15.60;99.90
18906;DHT22;9585;51.018;4.282;2022-08-19T03:25:39;15.70;99.90
18906;DHT22;9585;51.018;4.282;2022-08-19T03:28:09;15.70;99.90
18906;DHT22;9585;51.018;4.282;2022-08-19T03:30:37;15.60;99.90
18906;DHT22;9585;51.018;4.282;2022-08-19T03:33:07;15.60;99.90
18906;DHT22;9585;51.018;4.282;2022-08-19T03:35:36;15.60;99.90
18906;DHT22;9585;51.018;4.282;2022-08-19T03:38:03;15.60;99.90
18906;DHT22;9585;51.018;4.282;2022-08-19T03:40:31;15.60;99.90
18906;DHT22;9585;51.018;4.282;2022-08-19T03:43:00;15.60;99.90
18906;DHT22;9585;51.018;4.282;2022-08-19T03:45:28;15.60;99.90
18906;DHT22;9585;51.018;4.282;2022-08-19T03:47:55;15.60;99.90
18906;DHT22;9585;51.018;4.282;2022-08-19T03:50:22;15.50;99.90
18906;DHT22;9585;51.018;4.282;2022-08-19T03:52:51;15.50;99.90
18906;DHT22;9585;51.018;4.282;2022-08-19T03:55:19;15.50;99.90
18906;DHT22;9585;51.018;4.282;2022-08-19T03:57:46;15.50;99.90
18906;DHT22;9585;51.018;4.282;2022-08-19T04:00:15;15.50;99.90
18906;DHT22;9585;51.018;4.282;2022-08-19T04:02:42;15.50;99.90
18906;DHT22;9585;51.018;4.282;2022-08-19T04:05:09;15.40;99.90
18906;DHT22;9585;51.018;4.282;2022-08-19T04:07:37;15.40;99.90
18906;DHT22;9585;51.018;4.282;2022-08-19T04:10:06;15.40;99.90
18906;DHT22;9585;51.018;4.282;2022-08-19T04:12:34;15.40;99.90
18906;DHT22;9585;51.018;4.282;2022-08-19T04:15:03;15.40;99.90
18906;DHT22;9585;51.018;4.282;2022-08-19T04:17:31;15.40;99.90
18906;DHT22;9585;51.018;4.282;2022-08-19T04:19:59;15.40;99.90
18906;DHT22;9585;51.018;4.282;2022-08-19T04:22:27;15.40;99.90
18906;DHT22;9585;51.018;4.282;2022-08-19T04:24:54;15.40;99.90
18906;DHT22;9585;51.018;4.282;2022-08-19T04:27:23;15.40;99.90
18906;DHT22;9585;51.018;4.282;2022-08-19T04:29:50;15.30;99.90
18906;DHT22;9585;51.018;4.282;2022-08-19T04:32:19;15.30;99.90
18906;DHT22;9585;51.018;4.282;2022-08-19T04:34:48;15.30;99.90
18906;DHT22;9585;51.018;4.282;2022-08-19T04:37:15;15.30;99.90
18906;DHT22;9585;51.018;4.282;2022-08-19T04:39:42;15.30;99.90
18906;DHT22;9585;51.018;4.282;2022-08-19T04:42:28;15.30;99.90
18906;DHT22;9585;51.018;4.282;2022-08-19T04:45:09;15.30;99.90
18906;DHT22;9585;51.018;4.282;2022-08-19T04:47:37;15.20;99.90
18906;DHT22;9585;51.018;4.282;2022-08-19T04:50:06;15.20;99.90
18906;DHT22;9585;51.018;4.282;2022-08-19T04:52:35;15.20;99.90
18906;DHT22;9585;51.018;4.282;2022-08-19T04:55:03;15.20;99.90
18906;DHT22;9585;51.018;4.282;2022-08-19T04:57:33;15.20;99.90
18906;DHT22;9585;51.018;4.282;2022-08-19T05:00:01;15.20;99.90
18906;DHT22;9585;51.018;4.282;2022-08-19T05:02:28;15.20;99.90
18906;DHT22;9585;51.018;4.282;2022-08-19T05:04:57;15.20;99.90
18906;DHT22;9585;51.018;4.282;2022-08-19T05:07:26;15.20;99.90
18906;DHT22;9585;51.018;4.282;2022-08-19T05:09:53;15.30;99.90
18906;DHT22;9585;51.018;4.282;2022-08-19T05:12:20;15.30;99.90
18906;DHT22;9585;51.018;4.282;2022-08-19T05:14:49;15.40;99.90
18906;DHT22;9585;51.018;4.282;2022-08-19T05:17:17;15.60;99.90
18906;DHT22;9585;51.018;4.282;2022-08-19T05:19:44;16.00;99.90
18906;DHT22;9585;51.018;4.282;2022-08-19T05:22:29;16.60;99.90
18906;DHT22;9585;51.018;4.282;2022-08-19T05:25:05;17.20;99.90
18906;DHT22;9585;51.018;4.282;2022-08-19T05:27:33;17.60;99.90
18906;DHT22;9585;51.018;4.282;2022-08-19T05:30:03;17.70;99.90
18906;DHT22;9585;51.018;4.282;2022-08-19T05:32:31;17.90;99.90
18906;DHT22;9585;51.018;4.282;2022-08-19T05:34:58;18.30;99.90
18906;DHT22;9585;51.018;4.282;2022-08-19T05:37:25;18.40;99.90
18906;DHT22;9585;51.018;4.282;2022-08-19T05:39:54;18.30;99.90
18906;DHT22;9585;51.018;4.282;2022-08-19T05:42:21;18.10;99.90
18906;DHT22;9585;51.018;4.282;2022-08-19T05:44:49;17.90;99.90
18906;DHT22;9585;51.018;4.282;2022-08-19T05:47:19;17.70;99.90
18906;DHT22;9585;51.018;4.282;2022-08-19T05:49:47;17.60;99.90
18906;DHT22;9585;51.018;4.282;2022-08-19T05:52:17;17.50;99.90
18906;DHT22;9585;51.018;4.282;2022-08-19T05:54:44;17.50;99.90
18906;DHT22;9585;51.018;4.282;2022-08-19T05:57:13;17.50;99.90
18906;DHT22;9585;51.018;4.282;2022-08-19T05:59:41;17.60;99.90
18906;DHT22;9585;51.018;4.282;2022-08-19T06:02:11;17.70;99.90
18906;DHT22;9585;51.018;4.282;2022-08-19T06:04:41;17.80;99.90
18906;DHT22;9585;51.018;4.282;2022-08-19T06:07:09;18.00;99.90
18906;DHT22;9585;51.018;4.282;2022-08-19T06:09:36;18.10;99.90
18906;DHT22;9585;51.018;4.282;2022-08-19T06:12:04;18.30;99.90
18906;DHT22;9585;51.018;4.282;2022-08-19T06:14:34;18.40;99.90
18906;DHT22;9585;51.018;4.282;2022-08-19T06:17:01;18.40;99.90
18906;DHT22;9585;51.018;4.282;2022-08-19T06:19:30;18.50;99.90
18906;DHT22;9585;51.018;4.282;2022-08-19T06:21:59;18.40;99.90
18906;DHT22;9585;51.018;4.282;2022-08-19T06:24:28;18.40;99.90
18906;DHT22;9585;51.018;4.282;2022-08-19T06:26:58;18.40;99.90
18906;DHT22;9585;51.018;4.282;2022-08-19T06:29:27;18.30;99.90
18906;DHT22;9585;51.018;4.282;2022-08-19T06:31:58;18.20;99.90
18906;DHT22;9585;51.018;4.282;2022-08-19T06:34:27;18.20;99.90
18906;DHT22;9585;51.018;4.282;2022-08-19T06:36:55;18.00;99.90
18906;DHT22;9585;51.018;4.282;2022-08-19T06:39:27;18.00;99.90
18906;DHT22;9585;51.018;4.282;2022-08-19T06:41:57;18.00;99.90
18906;DHT22;9585;51.018;4.282;2022-08-19T06:44:28;18.00;99.90
18906;DHT22;9585;51.018;4.282;2022-08-19T06:46:57;18.00;99.90
18906;DHT22;9585;51.018;4.282;2022-08-19T06:49:24;18.10;99.90
18906;DHT22;9585;51.018;4.282;2022-08-19T06:51:57;18.20;99.90
18906;DHT22;9585;51.018;4.282;2022-08-19T06:54:27;18.30;99.90
18906;DHT22;9585;51.018;4.282;2022-08-19T06:56:55;18.40;99.90
18906;DHT22;9585;51.018;4.282;2022-08-19T06:59:24;18.30;99.90
18906;DHT22;9585;51.018;4.282;2022-08-19T07:01:56;18.20;99.90
18906;DHT22;9585;51.018;4.282;2022-08-19T07:04:26;18.20;99.90
18906;DHT22;9585;51.018;4.282;2022-08-19T07:06:57;18.20;99.90
18906;DHT22;9585;51.018;4.282;2022-08-19T07:09:27;18.30;99.90
18906;DHT22;9585;51.018;4.282;2022-08-19T07:11:55;18.40;99.90
18906;DHT22;9585;51.018;4.282;2022-08-19T07:14:25;18.60;99.90
18906;DHT22;9585;51.018;4.282;2022-08-19T07:16:54;18.80;99.90
18906;DHT22;9585;51.018;4.282;2022-08-19T07:19:24;19.00;99.90
18906;DHT22;9585;51.018;4.282;2022-08-19T07:21:54;19.10;99.90
18906;DHT22;9585;51.018;4.282;2022-08-19T07:24:23;19.30;99.90
18906;DHT22;9585;51.018;4.282;2022-08-19T07:26:53;19.30;99.90
18906;DHT22;9585;51.018;4.282;2022-08-19T07:29:22;19.50;99.90
18906;DHT22;9585;51.018;4.282;2022-08-19T07:31:50;19.50;99.90
18906;DHT22;9585;51.018;4.282;2022-08-19T07:34:18;19.60;99.90
18906;DHT22;9585;51.018;4.282;2022-08-19T07:36:45;19.50;99.90
18906;DHT22;9585;51.018;4.282;2022-08-19T07:39:19;19.60;99.90
18906;DHT22;9585;51.018;4.282;2022-08-19T07:41:47;19.70;99.90
18906;DHT22;9585;51.018;4.282;2022-08-19T07:44:19;20.00;99.90
18906;DHT22;9585;51.018;4.282;2022-08-19T07:46:48;20.30;99.90
18906;DHT22;9585;51.018;4.282;2022-08-19T07:49:16;20.70;99.90
18906;DHT22;9585;51.018;4.282;2022-08-19T07:51:46;21.40;99.90
18906;DHT22;9585;51.018;4.282;2022-08-19T07:54:13;22.30;99.90
18906;DHT22;9585;51.018;4.282;2022-08-19T07:56:42;23.40;99.90
18906;DHT22;9585;51.018;4.282;2022-08-19T07:59:09;23.60;99.90
18906;DHT22;9585;51.018;4.282;2022-08-19T08:01:41;23.30;99.90
18906;DHT22;9585;51.018;4.282;2022-08-19T08:04:08;23.20;99.90
18906;DHT22;9585;51.018;4.282;2022-08-19T08:06:55;22.90;99.90
18906;DHT22;9585;51.018;4.282;2022-08-19T08:09:41;22.60;99.90
18906;DHT22;9585;51.018;4.282;2022-08-19T08:12:14;22.30;99.90
18906;DHT22;9585;51.018;4.282;2022-08-19T08:14:44;22.10;99.90
18906;DHT22;9585;51.018;4.282;2022-08-19T08:17:15;21.90;99.90
18906;DHT22;9585;51.018;4.282;2022-08-19T08:19:43;21.70;99.90
18906;DHT22;9585;51.018;4.282;2022-08-19T08:22:11;21.50;99.90
18906;DHT22;9585;51.018;4.282;2022-08-19T08:25:02;21.30;99.90
18906;DHT22;9585;51.018;4.282;2022-08-19T08:27:29;21.40;99.90
18906;DHT22;9585;51.018;4.282;2022-08-19T08:29:57;21.30;99.90
18906;DHT22;9585;51.018;4.282;2022-08-19T08:32:26;21.20;99.90
18906;DHT22;9585;51.018;4.282;2022-08-19T08:34:53;21.10;99.90
18906;DHT22;9585;51.018;4.282;2022-08-19T08:37:21;21.00;99.90
18906;DHT22;9585;51.018;4.282;2022-08-19T08:39:48;21.00;99.90
18906;DHT22;9585;51.018;4.282;2022-08-19T08:42:22;21.10;99.90
18906;DHT22;9585;51.018;4.282;2022-08-19T08:44:58;21.10;99.90
18906;DHT22;9585;51.018;4.282;2022-08-19T08:47:30;21.00;99.90
18906;DHT22;9585;51.018;4.282;2022-08-19T08:50:04;21.00;99.90
18906;DHT22;9585;51.018;4.282;2022-08-19T08:52:35;21.10;99.90
18906;DHT22;9585;51.018;4.282;2022-08-19T08:55:07;21.20;99.90
18906;DHT22;9585;51.018;4.282;2022-08-19T08:57:38;21.20;99.90
18906;DHT22;9585;51.018;4.282;2022-08-19T09:00:08;21.30;99.90
18906;DHT22;9585;51.018;4.282;2022-08-19T09:02:40;21.40;99.90
18906;DHT22;9585;51.018;4.282;2022-08-19T09:05:09;21.50;99.90
18906;DHT22;9585;51.018;4.282;2022-08-19T09:07:41;21.60;99.90
18906;DHT22;9585;51.018;4.282;2022-08-19T09:10:21;21.60;99.90
18906;DHT22;9585;51.018;4.282;2022-08-19T09:12:55;21.50;99.90
18906;DHT22;9585;51.018;4.282;2022-08-19T09:15:34;21.40;99.90
18906;DHT22;9585;51.018;4.282;2022-08-19T09:18:08;21.50;99.90
18906;DHT22;9585;51.018;4.282;2022-08-19T09:20:36;21.50;99.90
18906;DHT22;9585;51.018;4.282;2022-08-19T09:23:05;21.60;99.90
18906;DHT22;9585;51.018;4.282;2022-08-19T09:25:36;21.70;99.90
18906;DHT22;9585;51.018;4.282;2022-08-19T09:28:06;21.80;99.90
18906;DHT22;9585;51.018;4.282;2022-08-19T09:30:38;21.70;99.90
18906;DHT22;9585;51.018;4.282;2022-08-19T09:33:07;21.70;99.90
18906;DHT22;9585;51.018;4.282;2022-08-19T09:35:35;21.80;99.90
18906;DHT22;9585;51.018;4.282;2022-08-19T09:38:02;21.70;99.90
18906;DHT22;9585;51.018;4.282;2022-08-19T09:40:30;21.70;99.90
18906;DHT22;9585;51.018;4.282;2022-08-19T09:42:59;21.60;99.90
18906;DHT22;9585;51.018;4.282;2022-08-19T09:45:28;21.60;99.90
18906;DHT22;9585;51.018;4.282;2022-08-19T09:47:56;21.50;99.90
18906;DHT22;9585;51.018;4.282;2022-08-19T09:50:25;21.40;99.90
18906;DHT22;9585;51.018;4.282;2022-08-19T09:52:52;21.40;99.90
18906;DHT22;9585;51.018;4.282;2022-08-19T09:55:20;21.40;99.90
18906;DHT22;9585;51.018;4.282;2022-08-19T09:57:47;21.40;99.90
18906;DHT22;9585;51.018;4.282;2022-08-19T10:00:15;21.40;99.90
18906;DHT22;9585;51.018;4.282;2022-08-19T10:02:42;21.50;99.90
18906;DHT22;9585;51.018;4.282;2022-08-19T10:05:10;21.50;99.90
18906;DHT22;9585;51.018;4.282;2022-08-19T10:07:55;21.50;99.90
18906;DHT22;9585;51.018;4.282;2022-08-19T10:10:26;21.50;99.90
18906;DHT22;9585;51.018;4.282;2022-08-19T10:12:54;21.60;99.90
18906;DHT22;9585;51.018;4.282;2022-08-19T10:15:24;21.60;99.90
18906;DHT22;9585;51.018;4.282;2022-08-19T10:17:53;21.70;99.90
18906;DHT22;9585;51.018;4.282;2022-08-19T10:20:20;21.60;99.90
18906;DHT22;9585;51.018;4.282;2022-08-19T10:22:49;21.70;99.90
18906;DHT22;9585;51.018;4.282;2022-08-19T10:25:18;21.80;99.90
18906;DHT22;9585;51.018;4.282;2022-08-19T10:27:46;21.90;99.90
18906;DHT22;9585;51.018;4.282;2022-08-19T10:30:14;21.90;99.90
18906;DHT22;9585;51.018;4.282;2022-08-19T10:32:41;22.00;99.90
18906;DHT22;9585;51.018;4.282;2022-08-19T10:35:10;22.00;99.90
18906;DHT22;9585;51.018;4.282;2022-08-19T10:37:41;21.90;99.90
18906;DHT22;9585;51.018;4.282;2022-08-19T10:40:09;21.90;99.90
18906;DHT22;9585;51.018;4.282;2022-08-19T10:42:39;21.70;99.90
18906;DHT22;9585;51.018;4.282;2022-08-19T10:45:07;21.70;99.90
18906;DHT22;9585;51.018;4.282;2022-08-19T10:47:35;21.70;99.90
18906;DHT22;9585;51.018;4.282;2022-08-19T10:50:04;21.60;99.90
18906;DHT22;9585;51.018;4.282;2022-08-19T10:52:51;21.50;99.90
18906;DHT22;9585;51.018;4.282;2022-08-19T10:55:22;21.60;99.90
18906;DHT22;9585;51.018;4.282;2022-08-19T10:58:14;21.50;99.90
18906;DHT22;9585;51.018;4.282;2022-08-19T11:00:43;21.50;99.90
18906;DHT22;9585;51.018;4.282;2022-08-19T11:03:17;21.40;99.90
18906;DHT22;9585;51.018;4.282;2022-08-19T11:05:44;21.40;99.90
18906;DHT22;9585;51.018;4.282;2022-08-19T11:08:12;21.40;99.90
18906;DHT22;9585;51.018;4.282;2022-08-19T11:10:41;21.40;99.90
18906;DHT22;9585;51.018;4.282;2022-08-19T11:13:09;21.30;99.90
18906;DHT22;9585;51.018;4.282;2022-08-19T11:15:55;21.20;99.90
18906;DHT22;9585;51.018;4.282;2022-08-19T11:18:22;21.40;99.90
18906;DHT22;9585;51.018;4.282;2022-08-19T11:20:49;21.40;99.90
18906;DHT22;9585;51.018;4.282;2022-08-19T11:23:17;21.40;99.90
18906;DHT22;9585;51.018;4.282;2022-08-19T11:25:45;21.50;99.90
18906;DHT22;9585;51.018;4.282;2022-08-19T11:28:13;21.50;99.90
18906;DHT22;9585;51.018;4.282;2022-08-19T11:30:40;21.70;99.90
18906;DHT22;9585;51.018;4.282;2022-08-19T11:33:09;22.00;99.90
18906;DHT22;9585;51.018;4.282;2022-08-19T11:35:39;22.50;99.90
18906;DHT22;9585;51.018;4.282;2022-08-19T11:38:09;22.80;99.90
18906;DHT22;9585;51.018;4.282;2022-08-19T11:40:40;23.20;99.90
18906;DHT22;9585;51.018;4.282;2022-08-19T11:43:07;23.40;99.90
18906;DHT22;9585;51.018;4.282;2022-08-19T11:45:35;23.60;99.90
18906;DHT22;9585;51.018;4.282;2022-08-19T11:48:02;23.70;99.90
18906;DHT22;9585;51.018;4.282;2022-08-19T11:50:31;23.90;99.90
18906;DHT22;9585;51.018;4.282;2022-08-19T11:53:00;24.20;99.90
18906;DHT22;9585;51.018;4.282;2022-08-19T11:55:27;24.30;99.90
18906;DHT22;9585;51.018;4.282;2022-08-19T11:57:54;24.40;99.90
18906;DHT22;9585;51.018;4.282;2022-08-19T12:00:22;24.50;99.90
18906;DHT22;9585;51.018;4.282;2022-08-19T12:02:49;24.60;99.90
18906;DHT22;9585;51.018;4.282;2022-08-19T12:05:17;24.80;99.90
18906;DHT22;9585;51.018;4.282;2022-08-19T12:07:46;24.80;99.90
18906;DHT22;9585;51.018;4.282;2022-08-19T12:10:13;24.70;99.90
18906;DHT22;9585;51.018;4.282;2022-08-19T12:12:40;24.40;99.90
18906;DHT22;9585;51.018;4.282;2022-08-19T12:15:12;24.50;99.90
18906;DHT22;9585;51.018;4.282;2022-08-19T12:17:40;24.50;99.90
18906;DHT22;9585;51.018;4.282;2022-08-19T12:20:09;24.50;99.90
18906;DHT22;9585;51.018;4.282;2022-08-19T12:22:38;24.80;99.90
18906;DHT22;9585;51.018;4.282;2022-08-19T12:25:09;25.00;99.90
18906;DHT22;9585;51.018;4.282;2022-08-19T12:27:37;25.10;99.90
18906;DHT22;9585;51.018;4.282;2022-08-19T12:30:06;25.20;99.90
18906;DHT22;9585;51.018;4.282;2022-08-19T12:32:34;25.00;99.90
18906;DHT22;9585;51.018;4.282;2022-08-19T12:35:07;24.70;99.90
18906;DHT22;9585;51.018;4.282;2022-08-19T12:37:43;24.60;99.90
18906;DHT22;9585;51.018;4.282;2022-08-19T12:40:13;24.30;99.90
18906;DHT22;9585;51.018;4.282;2022-08-19T12:42:40;24.10;99.90
18906;DHT22;9585;51.018;4.282;2022-08-19T12:45:09;23.90;99.90
18906;DHT22;9585;51.018;4.282;2022-08-19T12:47:36;23.80;99.90
18906;DHT22;9585;51.018;4.282;2022-08-19T12:50:05;23.70;99.90
18906;DHT22;9585;51.018;4.282;2022-08-19T12:52:35;23.80;99.90
18906;DHT22;9585;51.018;4.282;2022-08-19T12:55:04;23.90;99.90
18906;DHT22;9585;51.018;4.282;2022-08-19T12:57:33;24.20;99.90
18906;DHT22;9585;51.018;4.282;2022-08-19T13:00:04;24.50;99.90
18906;DHT22;9585;51.018;4.282;2022-08-19T13:02:33;24.60;99.90
18906;DHT22;9585;51.018;4.282;2022-08-19T13:05:02;24.80;99.90
18906;DHT22;9585;51.018;4.282;2022-08-19T13:07:31;24.90;99.90
18906;DHT22;9585;51.018;4.282;2022-08-19T13:09:59;25.10;99.90
18906;DHT22;9585;51.018;4.282;2022-08-19T13:12:26;25.10;99.90
18906;DHT22;9585;51.018;4.282;2022-08-19T13:14:56;25.10;99.90
18906;DHT22;9585;51.018;4.282;2022-08-19T13:17:25;25.20;99.90
18906;DHT22;9585;51.018;4.282;2022-08-19T13:19:53;25.30;99.90
18906;DHT22;9585;51.018;4.282;2022-08-19T13:22:31;25.20;99.90
18906;DHT22;9585;51.018;4.282;2022-08-19T13:25:01;25.10;99.90
18906;DHT22;9585;51.018;4.282;2022-08-19T13:27:29;25.10;99.90
18906;DHT22;9585;51.018;4.282;2022-08-19T13:30:02;25.10;99.90
18906;DHT22;9585;51.018;4.282;2022-08-19T13:32:53;24.90;99.90
18906;DHT22;9585;51.018;4.282;2022-08-19T13:35:44;24.90;99.90
18906;DHT22;9585;51.018;4.282;2022-08-19T13:38:13;25.00;99.90
18906;DHT22;9585;51.018;4.282;2022-08-19T13:40:43;25.10;99.90
18906;DHT22;9585;51.018;4.282;2022-08-19T13:43:15;25.20;99.90
18906;DHT22;9585;51.018;4.282;2022-08-19T13:45:45;25.30;99.90
18906;DHT22;9585;51.018;4.282;2022-08-19T13:48:12;25.40;99.90
18906;DHT22;9585;51.018;4.282;2022-08-19T13:50:43;25.30;99.90
18906;DHT22;9585;51.018;4.282;2022-08-19T13:53:12;25.40;99.90
18906;DHT22;9585;51.018;4.282;2022-08-19T13:55:43;25.40;99.90
18906;DHT22;9585;51.018;4.282;2022-08-19T13:58:19;25.60;99.90
18906;DHT22;9585;51.018;4.282;2022-08-19T14:00:51;25.50;99.90
18906;DHT22;9585;51.018;4.282;2022-08-19T14:03:18;25.50;99.90
18906;DHT22;9585;51.018;4.282;2022-08-19T14:05:46;25.40;99.90
18906;DHT22;9585;51.018;4.282;2022-08-19T14:08:14;25.50;99.90
18906;DHT22;9585;51.018;4.282;2022-08-19T14:10:41;25.60;99.90
18906;DHT22;9585;51.018;4.282;2022-08-19T14:13:14;25.60;99.90
18906;DHT22;9585;51.018;4.282;2022-08-19T14:15:43;25.60;99.90
18906;DHT22;9585;51.018;4.282;2022-08-19T14:18:12;25.40;99.90
18906;DHT22;9585;51.018;4.282;2022-08-19T14:20:40;25.30;99.90
18906;DHT22;9585;51.018;4.282;2022-08-19T14:23:07;25.20;99.90
18906;DHT22;9585;51.018;4.282;2022-08-19T14:25:34;25.00;99.90
18906;DHT22;9585;51.018;4.282;2022-08-19T14:28:02;24.80;99.90
18906;DHT22;9585;51.018;4.282;2022-08-19T14:30:32;24.50;99.90
18906;DHT22;9585;51.018;4.282;2022-08-19T14:33:01;24.50;99.90
18906;DHT22;9585;51.018;4.282;2022-08-19T14:35:32;24.50;99.90
18906;DHT22;9585;51.018;4.282;2022-08-19T14:38:00;24.50;99.90
18906;DHT22;9585;51.018;4.282;2022-08-19T14:40:29;24.40;99.90
18906;DHT22;9585;51.018;4.282;2022-08-19T14:42:58;24.20;99.90
18906;DHT22;9585;51.018;4.282;2022-08-19T14:45:30;24.20;99.90
18906;DHT22;9585;51.018;4.282;2022-08-19T14:47:57;24.00;99.90
18906;DHT22;9585;51.018;4.282;2022-08-19T14:50:26;23.90;99.90
18906;DHT22;9585;51.018;4.282;2022-08-19T14:53:00;23.90;99.90
18906;DHT22;9585;51.018;4.282;2022-08-19T14:55:29;23.90;99.90
18906;DHT22;9585;51.018;4.282;2022-08-19T14:57:57;23.90;99.90
18906;DHT22;9585;51.018;4.282;2022-08-19T15:00:25;24.00;99.90
18906;DHT22;9585;51.018;4.282;2022-08-19T15:02:53;24.30;99.90
18906;DHT22;9585;51.018;4.282;2022-08-19T15:05:20;24.50;99.90
18906;DHT22;9585;51.018;4.282;2022-08-19T15:07:48;24.60;99.90
18906;DHT22;9585;51.018;4.282;2022-08-19T15:10:17;24.70;99.90
18906;DHT22;9585;51.018;4.282;2022-08-19T15:12:44;24.80;99.90
18906;DHT22;9585;51.018;4.282;2022-08-19T15:15:13;24.80;99.90
18906;DHT22;9585;51.018;4.282;2022-08-19T15:17:43;24.90;99.90
18906;DHT22;9585;51.018;4.282;2022-08-19T15:20:14;25.00;99.90
18906;DHT22;9585;51.018;4.282;2022-08-19T15:22:41;25.00;99.90
18906;DHT22;9585;51.018;4.282;2022-08-19T15:25:10;24.90;99.90
18906;DHT22;9585;51.018;4.282;2022-08-19T15:27:40;24.80;99.90
18906;DHT22;9585;51.018;4.282;2022-08-19T15:30:10;24.90;99.90
18906;DHT22;9585;51.018;4.282;2022-08-19T15:32:38;24.90;99.90
18906;DHT22;9585;51.018;4.282;2022-08-19T15:35:11;25.00;99.90
18906;DHT22;9585;51.018;4.282;2022-08-19T15:37:39;25.00;99.90
18906;DHT22;9585;51.018;4.282;2022-08-19T15:40:08;25.00;99.90
18906;DHT22;9585;51.018;4.282;2022-08-19T15:42:36;24.90;99.90
18906;DHT22;9585;51.018;4.282;2022-08-19T15:45:15;24.80;99.90
18906;DHT22;9585;51.018;4.282;2022-08-19T15:47:43;24.70;99.90
18906;DHT22;9585;51.018;4.282;2022-08-19T15:50:13;24.50;99.90
18906;DHT22;9585;51.018;4.282;2022-08-19T15:52:45;24.40;99.90
18906;DHT22;9585;51.018;4.282;2022-08-19T15:55:13;24.50;99.90
18906;DHT22;9585;51.018;4.282;2022-08-19T15:57:40;24.50;99.90
18906;DHT22;9585;51.018;4.282;2022-08-19T16:00:27;24.40;99.90